sensor_id;sensor_type;location;lat;lon;timestamp;pressure;altitude;pressure_sealevel;temperature;humidity
18509;BME280;9383;50.928;12.116;2023-02-20T00:00:17;99578.59;;;3.96;100.00
18509;BME280;9383;50.928;12.116;2023-02-20T00:02:44;99576.00;;;3.99;100.00
18509;BME280;9383;50.928;12.116;2023-02-20T00:05:12;99571.63;;;4.01;100.00
18509;BME280;9383;50.928;12.116;2023-02-20T00:07:39;99569.00;;;4.02;100.00
18509;BME280;9383;50.928;12.116;2023-02-20T00:10:06;99566.41;;;4.05;100.00
18509;BME280;9383;50.928;12.116;2023-02-20T00:12:33;99559.38;;;4.09;100.00
18509;BME280;9383;50.928;12.116;2023-02-20T00:14:59;99565.53;;;4.13;100.00
18509;BME280;9383;50.928;12.116;2023-02-20T00:17:25;99563.75;;;4.15;100.00
18509;BME280;9383;50.928;12.116;2023-02-20T00:19:54;99567.25;;;4.17;100.00
18509;BME280;9383;50.928;12.116;2023-02-20T00:22:21;99561.16;;;4.19;100.00
18509;BME280;9383;50.928;12.116;2023-02-20T00:24:49;99550.66;;;4.21;100.00
18509;BME280;9383;50.928;12.116;2023-02-20T00:27:16;99550.66;;;4.24;100.00
18509;BME280;9383;50.928;12.116;2023-02-20T00:29:44;99540.19;;;4.26;100.00
18509;BME280;9383;50.928;12.116;2023-02-20T00:32:12;99545.41;;;4.29;100.00
18509;BME280;9383;50.928;12.116;2023-02-20T00:34:39;99541.94;;;4.31;100.00
18509;BME280;9383;50.928;12.116;2023-02-20T00:37:05;99544.53;;;4.33;100.00
18509;BME280;9383;50.928;12.116;2023-02-20T00:39:32;99537.53;;;4.35;100.00
18509;BME280;9383;50.928;12.116;2023-02-20T00:41:58;99536.66;;;4.38;100.00
18509;BME280;9383;50.928;12.116;2023-02-20T00:44:31;99548.03;;;4.40;100.00
18509;BME280;9383;50.928;12.116;2023-02-20T00:46:58;99534.03;;;4.41;100.00
18509;BME280;9383;50.928;12.116;2023-02-20T00:49:24;99531.41;;;4.42;100.00
18509;BME280;9383;50.928;12.116;2023-02-20T00:51:51;99536.69;;;4.44;100.00
18509;BME280;9383;50.928;12.116;2023-02-20T00:54:18;99537.56;;;4.46;100.00
18509;BME280;9383;50.928;12.116;2023-02-20T00:56:44;99531.41;;;4.47;100.00
18509;BME280;9383;50.928;12.116;2023-02-20T00:59:11;99538.44;;;4.49;100.00
18509;BME280;9383;50.928;12.116;2023-02-20T01:01:38;99534.03;;;4.50;100.00
18509;BME280;9383;50.928;12.116;2023-02-20T01:04:04;99532.28;;;4.52;100.00
18509;BME280;9383;50.928;12.116;2023-02-20T01:06:31;99536.66;;;4.53;100.00
18509;BME280;9383;50.928;12.116;2023-02-20T01:08:57;99533.16;;;4.54;100.00
18509;BME280;9383;50.928;12.116;2023-02-20T01:11:24;99530.53;;;4.54;100.00
18509;BME280;9383;50.928;12.116;2023-02-20T01:13:50;99534.91;;;4.57;100.00
18509;BME280;9383;50.928;12.116;2023-02-20T01:16:17;99531.41;;;4.58;100.00
18509;BME280;9383;50.928;12.116;2023-02-20T01:18:44;99522.66;;;4.57;100.00
18509;BME280;9383;50.928;12.116;2023-02-20T01:21:10;99523.53;;;4.59;100.00
18509;BME280;9383;50.928;12.116;2023-02-20T01:23:36;99496.44;;;4.45;100.00
18509;BME280;9383;50.928;12.116;2023-02-20T01:26:03;99511.28;;;4.61;100.00
18509;BME280;9383;50.928;12.116;2023-02-20T01:28:31;99511.28;;;4.63;100.00
18509;BME280;9383;50.928;12.116;2023-02-20T01:31:00;99507.75;;;4.65;100.00
18509;BME280;9383;50.928;12.116;2023-02-20T01:33:26;99514.75;;;4.67;100.00
18509;BME280;9383;50.928;12.116;2023-02-20T01:35:53;99513.88;;;4.69;100.00
18509;BME280;9383;50.928;12.116;2023-02-20T01:38:19;99507.78;;;4.69;100.00
18509;BME280;9383;50.928;12.116;2023-02-20T01:40:47;99506.88;;;4.71;100.00
18509;BME280;9383;50.928;12.116;2023-02-20T01:43:16;99429.06;;;4.33;100.00
18509;BME280;9383;50.928;12.116;2023-02-20T01:45:43;99490.25;;;4.74;100.00
18509;BME280;9383;50.928;12.116;2023-02-20T01:48:24;99498.13;;;4.75;100.00
18509;BME280;9383;50.928;12.116;2023-02-20T01:50:59;99488.50;;;4.74;100.00
18509;BME280;9383;50.928;12.116;2023-02-20T01:53:28;99499.00;;;4.76;100.00
18509;BME280;9383;50.928;12.116;2023-02-20T01:56:02;99497.25;;;4.75;100.00
18509;BME280;9383;50.928;12.116;2023-02-20T01:58:42;99498.13;;;4.75;100.00
18509;BME280;9383;50.928;12.116;2023-02-20T02:01:11;99502.50;;;4.75;100.00
18509;BME280;9383;50.928;12.116;2023-02-20T02:03:42;99501.59;;;4.79;100.00
18509;BME280;9383;50.928;12.116;2023-02-20T02:06:11;99494.59;;;4.79;100.00
18509;BME280;9383;50.928;12.116;2023-02-20T02:08:40;99491.09;;;4.79;100.00
18509;BME280;9383;50.928;12.116;2023-02-20T02:11:11;99484.97;;;4.82;100.00
18509;BME280;9383;50.928;12.116;2023-02-20T02:13:39;99478.84;;;4.83;100.00
18509;BME280;9383;50.928;12.116;2023-02-20T02:25:02;99460.44;;;4.89;100.00
18509;BME280;9383;50.928;12.116;2023-02-20T02:27:58;99449.03;;;4.91;100.00
18509;BME280;9383;50.928;12.116;2023-02-20T02:31:04;99453.41;;;4.94;100.00
18509;BME280;9383;50.928;12.116;2023-02-20T02:37:15;99445.50;;;4.97;100.00
18509;BME280;9383;50.928;12.116;2023-02-20T02:39:50;99435.00;;;4.99;100.00
18509;BME280;9383;50.928;12.116;2023-02-20T02:42:39;99435.00;;;4.99;100.00
18509;BME280;9383;50.928;12.116;2023-02-20T02:45:37;99439.38;;;5.00;100.00
18509;BME280;9383;50.928;12.116;2023-02-20T02:48:19;99442.84;;;5.02;100.00
18509;BME280;9383;50.928;12.116;2023-02-20T02:50:48;99438.50;;;5.02;100.00
18509;BME280;9383;50.928;12.116;2023-02-20T02:53:17;99439.34;;;5.03;100.00
18509;BME280;9383;50.928;12.116;2023-02-20T02:55:43;99433.22;;;5.04;100.00
18509;BME280;9383;50.928;12.116;2023-02-20T02:58:11;99438.47;;;5.05;100.00
18509;BME280;9383;50.928;12.116;2023-02-20T03:00:46;99434.94;;;5.05;100.00
18509;BME280;9383;50.928;12.116;2023-02-20T03:03:23;99438.47;;;5.05;100.00
18509;BME280;9383;50.928;12.116;2023-02-20T03:05:59;99431.44;;;5.07;100.00
18509;BME280;9383;50.928;12.116;2023-02-20T03:08:40;99434.09;;;5.09;100.00
18509;BME280;9383;50.928;12.116;2023-02-20T03:13:47;99426.19;;;5.12;100.00
18509;BME280;9383;50.928;12.116;2023-02-20T03:16:50;99417.41;;;5.12;100.00
18509;BME280;9383;50.928;12.116;2023-02-20T03:19:46;99420.03;;;5.13;100.00
18509;BME280;9383;50.928;12.116;2023-02-20T03:22:23;99412.16;;;5.15;100.00
18509;BME280;9383;50.928;12.116;2023-02-20T03:24:53;99423.53;;;5.15;100.00
18509;BME280;9383;50.928;12.116;2023-02-20T03:30:33;99419.16;;;5.16;100.00
18509;BME280;9383;50.928;12.116;2023-02-20T03:33:21;99415.63;;;5.17;100.00
18509;BME280;9383;50.928;12.116;2023-02-20T03:36:12;99411.25;;;5.17;100.00
18509;BME280;9383;50.928;12.116;2023-02-20T03:39:03;99408.63;;;5.17;100.00
18509;BME280;9383;50.928;12.116;2023-02-20T03:41:50;99418.28;;;5.18;100.00
18509;BME280;9383;50.928;12.116;2023-02-20T03:44:37;99420.00;;;5.21;100.00
18509;BME280;9383;50.928;12.116;2023-02-20T03:47:06;99424.34;;;5.22;100.00
18509;BME280;9383;50.928;12.116;2023-02-20T03:49:38;99420.00;;;5.23;100.00
18509;BME280;9383;50.928;12.116;2023-02-20T03:52:05;99422.63;;;5.23;100.00
18509;BME280;9383;50.928;12.116;2023-02-20T03:54:32;99432.25;;;5.24;100.00
18509;BME280;9383;50.928;12.116;2023-02-20T03:57:14;99423.47;;;5.25;100.00
18509;BME280;9383;50.928;12.116;2023-02-20T03:59:54;99433.97;;;5.28;100.00
18509;BME280;9383;50.928;12.116;2023-02-20T04:02:29;99429.59;;;5.28;100.00
18509;BME280;9383;50.928;12.116;2023-02-20T04:05:00;99436.59;;;5.29;100.00
18509;BME280;9383;50.928;12.116;2023-02-20T04:07:34;99433.97;;;5.31;100.00
18509;BME280;9383;50.928;12.116;2023-02-20T04:10:04;99429.59;;;5.33;100.00
18509;BME280;9383;50.928;12.116;2023-02-20T04:12:35;99430.44;;;5.33;100.00
18509;BME280;9383;50.928;12.116;2023-02-20T04:15:04;99429.56;;;5.36;100.00
18509;BME280;9383;50.928;12.116;2023-02-20T04:17:47;99410.38;;;5.21;100.00
18509;BME280;9383;50.928;12.116;2023-02-20T04:20:16;99433.03;;;5.37;100.00
18509;BME280;9383;50.928;12.116;2023-02-20T04:22:46;99425.16;;;5.38;100.00
18509;BME280;9383;50.928;12.116;2023-02-20T04:25:37;99430.41;;;5.37;100.00
18509;BME280;9383;50.928;12.116;2023-02-20T04:28:05;99433.03;;;5.38;100.00
18509;BME280;9383;50.928;12.116;2023-02-20T04:30:32;99424.28;;;5.39;100.00
18509;BME280;9383;50.928;12.116;2023-02-20T04:32:59;99435.69;;;5.40;100.00
18509;BME280;9383;50.928;12.116;2023-02-20T04:35:25;99439.16;;;5.40;100.00
18509;BME280;9383;50.928;12.116;2023-02-20T04:37:52;99440.06;;;5.41;100.00
18509;BME280;9383;50.928;12.116;2023-02-20T04:40:21;99439.16;;;5.42;100.00
18509;BME280;9383;50.928;12.116;2023-02-20T04:42:48;99441.78;;;5.40;100.00
18509;BME280;9383;50.928;12.116;2023-02-20T04:45:15;99440.91;;;5.41;100.00
18509;BME280;9383;50.928;12.116;2023-02-20T04:47:43;99439.19;;;5.39;100.00
18509;BME280;9383;50.928;12.116;2023-02-20T04:50:23;99432.16;;;5.39;100.00
18509;BME280;9383;50.928;12.116;2023-02-20T04:52:50;99430.41;;;5.38;100.00
18509;BME280;9383;50.928;12.116;2023-02-20T04:55:16;99420.78;;;5.39;100.00
18509;BME280;9383;50.928;12.116;2023-02-20T04:57:43;99364.88;;;5.04;100.00
18509;BME280;9383;50.928;12.116;2023-02-20T05:00:11;99424.28;;;5.39;100.00
18509;BME280;9383;50.928;12.116;2023-02-20T05:02:38;99431.31;;;5.39;100.00
18509;BME280;9383;50.928;12.116;2023-02-20T05:05:07;99430.41;;;5.38;100.00
18509;BME280;9383;50.928;12.116;2023-02-20T05:07:40;99435.69;;;5.40;100.00
18509;BME280;9383;50.928;12.116;2023-02-20T05:10:06;99433.94;;;5.37;100.00
18509;BME280;9383;50.928;12.116;2023-02-20T05:12:33;99410.25;;;5.37;100.00
18509;BME280;9383;50.928;12.116;2023-02-20T05:15:00;99400.63;;;5.36;100.00
18509;BME280;9383;50.928;12.116;2023-02-20T05:17:27;99386.59;;;5.35;100.00
18509;BME280;9383;50.928;12.116;2023-02-20T05:19:54;99392.75;;;5.34;100.00
18509;BME280;9383;50.928;12.116;2023-02-20T05:22:21;99394.50;;;5.32;100.00
18509;BME280;9383;50.928;12.116;2023-02-20T05:24:49;99392.78;;;5.33;100.00
18509;BME280;9383;50.928;12.116;2023-02-20T05:27:19;99390.16;;;5.31;100.00
18509;BME280;9383;50.928;12.116;2023-02-20T05:29:49;99391.88;;;5.34;100.00
18509;BME280;9383;50.928;12.116;2023-02-20T05:32:19;99394.53;;;5.31;100.00
18509;BME280;9383;50.928;12.116;2023-02-20T05:34:46;99377.91;;;5.27;100.00
18509;BME280;9383;50.928;12.116;2023-02-20T05:37:15;99369.13;;;5.28;100.00
18509;BME280;9383;50.928;12.116;2023-02-20T05:39:42;99378.81;;;5.26;100.00
18509;BME280;9383;50.928;12.116;2023-02-20T05:42:09;99377.91;;;5.26;100.00
18509;BME280;9383;50.928;12.116;2023-02-20T05:44:36;99369.16;;;5.25;100.00
18509;BME280;9383;50.928;12.116;2023-02-20T05:47:03;99363.03;;;5.26;100.00
18509;BME280;9383;50.928;12.116;2023-02-20T05:49:30;99378.78;;;5.28;100.00
18509;BME280;9383;50.928;12.116;2023-02-20T05:51:57;99373.53;;;5.25;100.00
18509;BME280;9383;50.928;12.116;2023-02-20T05:54:24;99362.13;;;5.24;100.00
18509;BME280;9383;50.928;12.116;2023-02-20T05:56:51;99360.44;;;5.21;100.00
18509;BME280;9383;50.928;12.116;2023-02-20T05:59:19;99364.78;;;5.21;100.00
18509;BME280;9383;50.928;12.116;2023-02-20T06:01:47;99361.31;;;5.20;100.00
18509;BME280;9383;50.928;12.116;2023-02-20T06:04:18;99361.31;;;5.17;100.00
18509;BME280;9383;50.928;12.116;2023-02-20T06:06:44;99371.81;;;5.20;100.00
18509;BME280;9383;50.928;12.116;2023-02-20T06:09:12;99377.97;;;5.19;100.00
18509;BME280;9383;50.928;12.116;2023-02-20T06:11:52;99394.59;;;5.21;100.00
18509;BME280;9383;50.928;12.116;2023-02-20T06:14:21;99387.59;;;5.17;100.00
18509;BME280;9383;50.928;12.116;2023-02-20T06:16:48;99380.59;;;5.16;100.00
18509;BME280;9383;50.928;12.116;2023-02-20T06:19:20;99378.84;;;5.17;100.00
18509;BME280;9383;50.928;12.116;2023-02-20T06:21:48;99377.09;;;5.14;100.00
18509;BME280;9383;50.928;12.116;2023-02-20T06:24:16;99377.13;;;5.13;100.00
18509;BME280;9383;50.928;12.116;2023-02-20T06:26:43;99362.22;;;5.13;100.00
18509;BME280;9383;50.928;12.116;2023-02-20T06:29:10;99362.22;;;5.13;100.00
18509;BME280;9383;50.928;12.116;2023-02-20T06:31:37;99374.47;;;5.14;100.00
18509;BME280;9383;50.928;12.116;2023-02-20T06:34:10;99348.19;;;5.14;100.00
18509;BME280;9383;50.928;12.116;2023-02-20T06:36:38;99359.59;;;5.15;100.00
18509;BME280;9383;50.928;12.116;2023-02-20T06:39:07;99341.19;;;5.13;99.75
18509;BME280;9383;50.928;12.116;2023-02-20T06:41:33;99343.81;;;5.15;99.72
18509;BME280;9383;50.928;12.116;2023-02-20T06:44:00;99333.31;;;5.15;98.94
18509;BME280;9383;50.928;12.116;2023-02-20T06:46:27;99335.91;;;5.16;98.77
18509;BME280;9383;50.928;12.116;2023-02-20T06:48:56;99331.53;;;5.17;98.65
18509;BME280;9383;50.928;12.116;2023-02-20T06:51:28;99330.66;;;5.18;98.28
18509;BME280;9383;50.928;12.116;2023-02-20T06:53:55;99322.78;;;5.19;97.26
18509;BME280;9383;50.928;12.116;2023-02-20T06:56:25;99330.66;;;5.19;97.73
18509;BME280;9383;50.928;12.116;2023-02-20T06:58:53;99330.63;;;5.23;97.29
18509;BME280;9383;50.928;12.116;2023-02-20T07:01:22;99333.22;;;5.24;97.55
18509;BME280;9383;50.928;12.116;2023-02-20T07:03:52;99330.59;;;5.26;97.00
18509;BME280;9383;50.928;12.116;2023-02-20T07:06:21;99315.72;;;5.26;95.41
18509;BME280;9383;50.928;12.116;2023-02-20T07:08:48;99316.56;;;5.28;96.19
18509;BME280;9383;50.928;12.116;2023-02-20T07:11:20;99312.16;;;5.30;95.66
18509;BME280;9383;50.928;12.116;2023-02-20T07:13:47;99310.41;;;5.32;95.44
18509;BME280;9383;50.928;12.116;2023-02-20T07:16:14;99325.28;;;5.33;95.10
18509;BME280;9383;50.928;12.116;2023-02-20T07:18:40;99318.28;;;5.34;95.12
18509;BME280;9383;50.928;12.116;2023-02-20T07:21:07;99322.66;;;5.35;95.53
18509;BME280;9383;50.928;12.116;2023-02-20T07:23:34;99320.03;;;5.35;94.96
18509;BME280;9383;50.928;12.116;2023-02-20T07:26:01;99314.72;;;5.38;93.51
18509;BME280;9383;50.928;12.116;2023-02-20T07:28:28;99307.72;;;5.39;94.03
18509;BME280;9383;50.928;12.116;2023-02-20T07:30:54;99300.69;;;5.39;93.54
18509;BME280;9383;50.928;12.116;2023-02-20T07:33:21;99302.44;;;5.40;94.20
18509;BME280;9383;50.928;12.116;2023-02-20T07:35:48;99293.66;;;5.44;93.67
18509;BME280;9383;50.928;12.116;2023-02-20T07:38:14;99297.16;;;5.46;94.08
18509;BME280;9383;50.928;12.116;2023-02-20T07:40:41;99293.59;;;5.51;94.18
18509;BME280;9383;50.928;12.116;2023-02-20T07:43:08;99298.81;;;5.54;94.22
18509;BME280;9383;50.928;12.116;2023-02-20T07:45:35;99311.91;;;5.61;93.13
18509;BME280;9383;50.928;12.116;2023-02-20T07:48:03;99296.97;;;5.67;93.71
18509;BME280;9383;50.928;12.116;2023-02-20T07:50:29;99283.75;;;5.76;93.33
18509;BME280;9383;50.928;12.116;2023-02-20T07:52:56;99290.66;;;5.85;94.19
18509;BME280;9383;50.928;12.116;2023-02-20T07:55:22;99285.28;;;5.96;92.69
18509;BME280;9383;50.928;12.116;2023-02-20T07:57:50;99284.34;;;6.04;93.35
18509;BME280;9383;50.928;12.116;2023-02-20T08:00:20;99290.31;;;6.21;90.84
18509;BME280;9383;50.928;12.116;2023-02-20T08:02:47;99275.31;;;6.27;90.56
18509;BME280;9383;50.928;12.116;2023-02-20T08:05:13;99277.88;;;6.33;90.93
18509;BME280;9383;50.928;12.116;2023-02-20T08:07:44;99282.13;;;6.44;90.52
18509;BME280;9383;50.928;12.116;2023-02-20T08:10:11;99270.59;;;6.54;88.83
18509;BME280;9383;50.928;12.116;2023-02-20T08:12:38;99262.56;;;6.64;89.00
18509;BME280;9383;50.928;12.116;2023-02-20T08:15:05;99255.44;;;6.72;87.65
18509;BME280;9383;50.928;12.116;2023-02-20T08:17:31;99243.88;;;6.81;88.40
18509;BME280;9383;50.928;12.116;2023-02-20T08:19:58;99242.00;;;6.89;87.68
18509;BME280;9383;50.928;12.116;2023-02-20T08:22:24;99242.81;;;6.94;85.91
18509;BME280;9383;50.928;12.116;2023-02-20T08:24:51;99246.22;;;6.99;86.85
18509;BME280;9383;50.928;12.116;2023-02-20T08:27:17;99251.44;;;7.04;86.52
18509;BME280;9383;50.928;12.116;2023-02-20T08:29:44;99255.81;;;7.05;85.41
18509;BME280;9383;50.928;12.116;2023-02-20T08:32:11;99239.06;;;7.09;85.48
18509;BME280;9383;50.928;12.116;2023-02-20T08:34:38;99238.13;;;7.12;85.45
18509;BME280;9383;50.928;12.116;2023-02-20T08:37:04;99230.09;;;7.20;84.52
18509;BME280;9383;50.928;12.116;2023-02-20T08:39:31;99236.13;;;7.26;83.69
18509;BME280;9383;50.928;12.116;2023-02-20T08:41:57;99237.78;;;7.32;83.38
18509;BME280;9383;50.928;12.116;2023-02-20T08:44:26;99231.59;;;7.36;83.07
18509;BME280;9383;50.928;12.116;2023-02-20T08:46:52;99232.34;;;7.43;82.43
18509;BME280;9383;50.928;12.116;2023-02-20T08:49:19;99235.81;;;7.46;83.38
18509;BME280;9383;50.928;12.116;2023-02-20T08:51:47;99235.69;;;7.54;82.76
18509;BME280;9383;50.928;12.116;2023-02-20T08:54:15;99235.59;;;7.59;82.27
18509;BME280;9383;50.928;12.116;2023-02-20T08:56:41;99235.50;;;7.64;83.24
18509;BME280;9383;50.928;12.116;2023-02-20T08:59:08;99229.22;;;7.69;82.21
18509;BME280;9383;50.928;12.116;2023-02-20T09:01:35;99228.25;;;7.75;81.42
18509;BME280;9383;50.928;12.116;2023-02-20T09:04:04;99227.25;;;7.81;82.24
18509;BME280;9383;50.928;12.116;2023-02-20T09:06:31;99228.06;;;7.86;82.40
18509;BME280;9383;50.928;12.116;2023-02-20T09:08:58;99221.81;;;7.90;81.70
18509;BME280;9383;50.928;12.116;2023-02-20T09:11:24;99226.09;;;7.97;82.52
18509;BME280;9383;50.928;12.116;2023-02-20T09:13:51;99222.53;;;7.98;81.06
18509;BME280;9383;50.928;12.116;2023-02-20T09:16:22;99211.94;;;8.00;81.38
18509;BME280;9383;50.928;12.116;2023-02-20T09:18:50;99220.75;;;8.00;79.65
18509;BME280;9383;50.928;12.116;2023-02-20T09:21:18;99218.94;;;8.02;78.89
18509;BME280;9383;50.928;12.116;2023-02-20T09:23:45;99219.78;;;8.05;79.00
18509;BME280;9383;50.928;12.116;2023-02-20T09:26:12;99226.75;;;8.07;80.50
18509;BME280;9383;50.928;12.116;2023-02-20T09:28:39;99214.47;;;8.06;79.33
18509;BME280;9383;50.928;12.116;2023-02-20T09:31:06;99226.72;;;8.09;79.24
18509;BME280;9383;50.928;12.116;2023-02-20T09:33:32;99209.03;;;8.14;80.65
18509;BME280;9383;50.928;12.116;2023-02-20T09:35:59;99204.66;;;8.13;79.13
18509;BME280;9383;50.928;12.116;2023-02-20T09:38:25;99205.47;;;8.15;79.54
18509;BME280;9383;50.928;12.116;2023-02-20T09:40:56;99196.72;;;8.13;77.69
18509;BME280;9383;50.928;12.116;2023-02-20T09:43:43;99197.56;;;8.15;77.98
18509;BME280;9383;50.928;12.116;2023-02-20T09:46:19;99192.13;;;8.21;79.38
18509;BME280;9383;50.928;12.116;2023-02-20T09:51:38;99193.75;;;8.28;77.51
18509;BME280;9383;50.928;12.116;2023-02-20T09:54:18;99205.97;;;8.33;76.79
18509;BME280;9383;50.928;12.116;2023-02-20T09:56:52;99193.66;;;8.33;76.88
18509;BME280;9383;50.928;12.116;2023-02-20T09:59:30;99187.41;;;8.37;78.21
18509;BME280;9383;50.928;12.116;2023-02-20T10:05:21;99187.28;;;8.42;77.38
18509;BME280;9383;50.928;12.116;2023-02-20T10:07:49;99179.28;;;8.47;77.26
18509;BME280;9383;50.928;12.116;2023-02-20T10:10:17;99178.34;;;8.49;76.85
18509;BME280;9383;50.928;12.116;2023-02-20T10:15:52;99171.97;;;8.60;74.57
18509;BME280;9383;50.928;12.116;2023-02-20T10:21:11;99165.56;;;8.70;75.18
18509;BME280;9383;50.928;12.116;2023-02-20T10:26:46;99162.66;;;8.81;75.63
18509;BME280;9383;50.928;12.116;2023-02-20T10:29:23;99162.47;;;8.89;75.71
18509;BME280;9383;50.928;12.116;2023-02-20T10:32:06;99169.31;;;8.97;76.36
18509;BME280;9383;50.928;12.116;2023-02-20T10:35:04;99145.31;;;9.05;75.81
18509;BME280;9383;50.928;12.116;2023-02-20T10:37:39;99139.72;;;9.18;75.42
18509;BME280;9383;50.928;12.116;2023-02-20T10:43:03;99135.41;;;9.47;74.32
18509;BME280;9383;50.928;12.116;2023-02-20T10:45:52;99136.88;;;9.59;71.88
18509;BME280;9383;50.928;12.116;2023-02-20T10:48:25;99129.44;;;9.71;73.65
18509;BME280;9383;50.928;12.116;2023-02-20T10:51:14;99109.63;;;9.85;73.13
18509;BME280;9383;50.928;12.116;2023-02-20T10:53:48;99118.94;;;9.98;70.64
18509;BME280;9383;50.928;12.116;2023-02-20T10:56:38;99114.41;;;10.04;68.97
18509;BME280;9383;50.928;12.116;2023-02-20T10:59:39;99096.63;;;10.07;69.20
18509;BME280;9383;50.928;12.116;2023-02-20T11:02:18;99107.09;;;10.12;69.12
18509;BME280;9383;50.928;12.116;2023-02-20T11:04:56;99105.25;;;10.14;67.70
18509;BME280;9383;50.928;12.116;2023-02-20T11:07:25;99108.63;;;10.19;68.78
18509;BME280;9383;50.928;12.116;2023-02-20T11:09:52;99111.09;;;10.25;68.90
18509;BME280;9383;50.928;12.116;2023-02-20T11:14:58;99099.47;;;10.30;65.18
18509;BME280;9383;50.928;12.116;2023-02-20T11:17:29;99096.72;;;10.33;66.47
18509;BME280;9383;50.928;12.116;2023-02-20T11:19:57;99089.59;;;10.35;65.71
18509;BME280;9383;50.928;12.116;2023-02-20T11:22:46;99100.94;;;10.40;64.70
18509;BME280;9383;50.928;12.116;2023-02-20T11:25:19;99090.16;;;10.46;64.60
18509;BME280;9383;50.928;12.116;2023-02-20T11:27:52;99092.66;;;10.51;63.33
18509;BME280;9383;50.928;12.116;2023-02-20T11:30:26;99090.69;;;10.58;64.45
18509;BME280;9383;50.928;12.116;2023-02-20T11:33:03;99086.00;;;10.66;65.68
18509;BME280;9383;50.928;12.116;2023-02-20T11:35:36;99096.38;;;10.72;63.52
18509;BME280;9383;50.928;12.116;2023-02-20T11:43:26;99095.78;;;10.91;62.28
18509;BME280;9383;50.928;12.116;2023-02-20T11:46:16;99082.38;;;10.95;63.07
18509;BME280;9383;50.928;12.116;2023-02-20T11:48:59;99086.59;;;11.01;62.81
18509;BME280;9383;50.928;12.116;2023-02-20T11:51:40;99094.50;;;11.03;61.45
18509;BME280;9383;50.928;12.116;2023-02-20T11:54:12;99076.69;;;11.06;61.80
18509;BME280;9383;50.928;12.116;2023-02-20T11:56:52;99072.06;;;11.11;62.59
18509;BME280;9383;50.928;12.116;2023-02-20T11:59:36;99079.22;;;11.09;59.92
18509;BME280;9383;50.928;12.116;2023-02-20T12:07:25;99045.72;;;11.07;60.21
18509;BME280;9383;50.928;12.116;2023-02-20T12:09:55;99048.38;;;11.07;59.93
18509;BME280;9383;50.928;12.116;2023-02-20T12:12:25;99040.34;;;11.08;59.90
18509;BME280;9383;50.928;12.116;2023-02-20T12:14:52;99032.19;;;11.15;60.96
18509;BME280;9383;50.928;12.116;2023-02-20T12:17:37;99032.13;;;11.16;60.14
18509;BME280;9383;50.928;12.116;2023-02-20T12:20:15;99028.53;;;11.17;59.05
18509;BME280;9383;50.928;12.116;2023-02-20T12:22:55;99023.16;;;11.20;59.11
18509;BME280;9383;50.928;12.116;2023-02-20T12:25:53;99022.91;;;11.26;60.69
18509;BME280;9383;50.928;12.116;2023-02-20T12:28:51;99000.69;;;11.29;59.67
18509;BME280;9383;50.928;12.116;2023-02-20T12:31:39;98984.91;;;11.26;59.70
18509;BME280;9383;50.928;12.116;2023-02-20T12:34:41;98995.44;;;11.28;59.75
18509;BME280;9383;50.928;12.116;2023-02-20T12:37:20;98991.81;;;11.30;59.86
18509;BME280;9383;50.928;12.116;2023-02-20T12:45:43;98979.81;;;11.44;59.00
18509;BME280;9383;50.928;12.116;2023-02-20T12:48:36;98968.16;;;11.48;57.09
18509;BME280;9383;50.928;12.116;2023-02-20T12:51:20;98964.31;;;11.57;58.57
18509;BME280;9383;50.928;12.116;2023-02-20T12:59:34;98948.88;;;11.89;58.78
18509;BME280;9383;50.928;12.116;2023-02-20T13:02:26;98936.94;;;11.99;58.88
18509;BME280;9383;50.928;12.116;2023-02-20T13:04:57;98934.88;;;12.07;57.83
18509;BME280;9383;50.928;12.116;2023-02-20T13:12:50;98915.88;;;12.17;56.23
18509;BME280;9383;50.928;12.116;2023-02-20T13:18:15;98909.72;;;12.16;57.16
18509;BME280;9383;50.928;12.116;2023-02-20T13:20:51;98895.69;;;12.13;57.12
18509;BME280;9383;50.928;12.116;2023-02-20T13:25:47;98894.69;;;12.15;58.31
18509;BME280;9383;50.928;12.116;2023-02-20T13:28:39;98888.56;;;12.13;58.63
18509;BME280;9383;50.928;12.116;2023-02-20T13:31:20;98878.75;;;12.15;59.14
18509;BME280;9383;50.928;12.116;2023-02-20T13:42:02;98859.97;;;12.20;58.85
18509;BME280;9383;50.928;12.116;2023-02-20T13:44:40;98856.22;;;12.24;59.48
18509;BME280;9383;50.928;12.116;2023-02-20T13:49:59;98845.47;;;12.27;60.26
18509;BME280;9383;50.928;12.116;2023-02-20T13:52:39;98845.31;;;12.30;60.45
18509;BME280;9383;50.928;12.116;2023-02-20T13:58:00;98846.84;;;12.36;60.89
18509;BME280;9383;50.928;12.116;2023-02-20T14:00:52;98843.38;;;12.34;60.91
18509;BME280;9383;50.928;12.116;2023-02-20T14:03:22;98836.41;;;12.31;60.69
18509;BME280;9383;50.928;12.116;2023-02-20T14:06:15;98834.56;;;12.33;62.02
18509;BME280;9383;50.928;12.116;2023-02-20T14:08:44;98845.50;;;12.26;61.48
18509;BME280;9383;50.928;12.116;2023-02-20T14:11:15;98848.06;;;12.29;62.28
18509;BME280;9383;50.928;12.116;2023-02-20T14:13:51;98843.88;;;12.23;62.23
18509;BME280;9383;50.928;12.116;2023-02-20T14:16:33;98857.91;;;12.27;62.15
18509;BME280;9383;50.928;12.116;2023-02-20T14:19:18;98870.25;;;12.28;63.15
18509;BME280;9383;50.928;12.116;2023-02-20T14:21:46;98863.06;;;12.30;63.19
18509;BME280;9383;50.928;12.116;2023-02-20T14:24:19;98874.34;;;12.35;64.10
18509;BME280;9383;50.928;12.116;2023-02-20T14:26:47;98829.19;;;12.14;63.99
18509;BME280;9383;50.928;12.116;2023-02-20T14:29:26;98875.97;;;12.39;63.53
18509;BME280;9383;50.928;12.116;2023-02-20T14:31:55;98866.19;;;12.40;63.58
18509;BME280;9383;50.928;12.116;2023-02-20T14:37:45;98875.03;;;12.40;63.29
18509;BME280;9383;50.928;12.116;2023-02-20T14:40:19;98821.66;;;12.03;63.17
18509;BME280;9383;50.928;12.116;2023-02-20T14:42:49;98874.22;;;12.38;63.47
18509;BME280;9383;50.928;12.116;2023-02-20T14:45:25;98875.09;;;12.38;63.79
18509;BME280;9383;50.928;12.116;2023-02-20T14:47:53;98889.31;;;12.37;64.35
18509;BME280;9383;50.928;12.116;2023-02-20T14:50:25;98886.66;;;12.37;64.44
18509;BME280;9383;50.928;12.116;2023-02-20T14:53:17;98880.56;;;12.35;64.13
18509;BME280;9383;50.928;12.116;2023-02-20T14:55:50;98880.56;;;12.35;64.22